createdAt,value
2022-12-03T00:00:39.467Z,99278.40
2022-12-03T00:03:37.108Z,99277.80
2022-12-03T00:06:34.985Z,99276.80
2022-12-03T00:09:32.498Z,99279.20
2022-12-03T00:12:29.977Z,99272.80
2022-12-03T00:15:27.434Z,99278.60
2022-12-03T00:18:24.951Z,99275.20
2022-12-03T00:21:24.629Z,99280.80
2022-12-03T00:24:22.358Z,99281.60
2022-12-03T00:27:19.822Z,99276.80
2022-12-03T00:30:17.281Z,99275.80
2022-12-03T00:33:14.762Z,99270.40
2022-12-03T00:36:12.225Z,99272.60
2022-12-03T00:39:09.890Z,99272.60
2022-12-03T00:42:07.401Z,99278.20
2022-12-03T00:45:04.837Z,99277.40
2022-12-03T00:48:02.284Z,99281.40
2022-12-03T00:50:59.748Z,99289.00
2022-12-03T00:53:57.218Z,99285.00
2022-12-03T00:56:54.689Z,99282.20
2022-12-03T00:59:52.146Z,99287.40
2022-12-03T01:02:49.645Z,99287.20
2022-12-03T01:05:47.120Z,99285.40
2022-12-03T01:08:44.619Z,99291.20
2022-12-03T01:11:42.094Z,99290.40
2022-12-03T01:14:39.523Z,99294.00
2022-12-03T01:17:36.981Z,99298.00
2022-12-03T01:20:36.366Z,99294.80
2022-12-03T01:23:33.879Z,99291.60
2022-12-03T01:26:31.315Z,99293.80
2022-12-03T01:29:28.788Z,99295.40
2022-12-03T01:32:26.232Z,99294.80
2022-12-03T01:35:23.689Z,99291.60
2022-12-03T01:38:21.179Z,99291.80
2022-12-03T01:41:18.617Z,99291.40
2022-12-03T01:44:16.096Z,99292.20
2022-12-03T01:47:13.545Z,99286.80
2022-12-03T01:50:11.044Z,99286.40
2022-12-03T01:53:08.508Z,99282.60
2022-12-03T01:56:05.963Z,99279.60
2022-12-03T01:59:03.434Z,99279.20
2022-12-03T02:02:00.985Z,99285.00
2022-12-03T02:04:58.516Z,99288.00
2022-12-03T02:07:56.043Z,99283.60
2022-12-03T02:10:53.527Z,99277.60
2022-12-03T02:13:50.999Z,99278.60
2022-12-03T02:16:48.453Z,99279.60
2022-12-03T02:19:45.917Z,99277.60
2022-12-03T02:22:43.372Z,99276.80
2022-12-03T02:25:40.834Z,99280.40
2022-12-03T02:28:38.715Z,99283.20
2022-12-03T02:31:36.281Z,99280.60
2022-12-03T02:34:33.890Z,99284.80
2022-12-03T02:37:31.351Z,99281.40
2022-12-03T02:40:28.857Z,99279.00
2022-12-03T02:43:26.342Z,99275.20
2022-12-03T02:46:24.126Z,99279.00
2022-12-03T02:49:21.660Z,99278.80
2022-12-03T02:52:19.106Z,99271.40
2022-12-03T02:55:16.590Z,99269.60
2022-12-03T02:58:14.031Z,99276.80
2022-12-03T03:01:11.513Z,99269.60
2022-12-03T03:04:09.035Z,99266.00
2022-12-03T03:07:06.472Z,99271.20
2022-12-03T03:10:03.932Z,99257.60
2022-12-03T03:13:01.396Z,99260.40
2022-12-03T03:15:58.915Z,99260.00
2022-12-03T03:18:56.421Z,99260.20
2022-12-03T03:21:53.882Z,99265.00
2022-12-03T03:24:51.636Z,99262.20
2022-12-03T03:27:49.318Z,99256.80
2022-12-03T03:30:46.815Z,99257.80
2022-12-03T03:33:44.301Z,99254.20
2022-12-03T03:36:41.743Z,99260.80
2022-12-03T03:39:39.215Z,99272.20
2022-12-03T03:42:36.661Z,99278.20
2022-12-03T03:45:34.199Z,99279.80
2022-12-03T03:48:31.709Z,99277.80
2022-12-03T03:51:29.181Z,99281.00
2022-12-03T03:54:26.624Z,99282.40
2022-12-03T03:57:24.088Z,99279.40
2022-12-03T04:00:21.568Z,99279.20
2022-12-03T04:03:19.010Z,99275.60
2022-12-03T04:06:16.447Z,99272.20
2022-12-03T04:09:13.894Z,99271.80
2022-12-03T04:12:29.022Z,99267.00
2022-12-03T04:15:26.457Z,99263.80
2022-12-03T04:18:41.274Z,99258.20
2022-12-03T04:21:56.383Z,99256.00
2022-12-03T04:25:13.814Z,99255.20
2022-12-03T04:28:28.930Z,99247.80
2022-12-03T04:31:43.811Z,99270.80
2022-12-03T04:34:59.117Z,99274.00
2022-12-03T04:37:56.552Z,99264.00
2022-12-03T04:41:10.697Z,99260.60
2022-12-03T04:44:25.583Z,99263.40
2022-12-03T04:47:23.039Z,99261.60
2022-12-03T04:50:20.496Z,99254.80
2022-12-03T04:53:17.948Z,99255.80
2022-12-03T04:56:15.407Z,99260.00
2022-12-03T04:59:16.283Z,99258.60
2022-12-03T05:02:14.261Z,99257.00
2022-12-03T05:05:11.969Z,99258.20
2022-12-03T05:08:09.545Z,99255.80
2022-12-03T05:11:07.071Z,99251.60
2022-12-03T05:14:04.558Z,99248.20
2022-12-03T05:17:02.124Z,99243.80
2022-12-03T05:20:17.375Z,99250.60
2022-12-03T05:23:14.866Z,99253.00
2022-12-03T05:26:12.338Z,99258.60
2022-12-03T05:29:09.801Z,99260.80
2022-12-03T05:32:07.292Z,99263.00
2022-12-03T05:35:04.804Z,99259.60
2022-12-03T05:38:02.248Z,99261.00
2022-12-03T05:40:59.700Z,99264.00
2022-12-03T05:43:57.156Z,99269.80
2022-12-03T05:46:54.650Z,99272.00
2022-12-03T05:49:52.116Z,99276.60
2022-12-03T05:52:49.636Z,99268.00
2022-12-03T05:55:47.077Z,99272.60
2022-12-03T05:58:44.544Z,99274.00
2022-12-03T06:01:41.995Z,99272.00
2022-12-03T06:04:39.447Z,99275.60
2022-12-03T06:07:36.959Z,99274.40
2022-12-03T06:10:34.546Z,99272.80
2022-12-03T06:13:32.114Z,99274.80
2022-12-03T06:16:29.744Z,99278.60
2022-12-03T06:19:27.228Z,99274.60
2022-12-03T06:22:24.696Z,99279.60
2022-12-03T06:25:22.149Z,99279.80
2022-12-03T06:28:19.607Z,99281.60
2022-12-03T06:31:17.135Z,99279.40
2022-12-03T06:34:14.655Z,99277.00
2022-12-03T06:37:12.139Z,99282.20
2022-12-03T06:40:09.574Z,99280.40
2022-12-03T06:43:07.045Z,99274.40
2022-12-03T06:46:04.656Z,99274.20
2022-12-03T06:49:02.203Z,99277.60
2022-12-03T06:51:59.679Z,99275.60
2022-12-03T06:54:57.557Z,99283.80
2022-12-03T06:57:55.043Z,99285.80
2022-12-03T07:00:52.503Z,99288.60
2022-12-03T07:03:49.951Z,99287.40
2022-12-03T07:06:47.393Z,99289.00
2022-12-03T07:09:44.857Z,99283.60
2022-12-03T07:12:42.340Z,99288.60
2022-12-03T07:15:39.803Z,99291.00
2022-12-03T07:18:37.280Z,99296.20
2022-12-03T07:21:34.718Z,99294.40
2022-12-03T07:24:32.187Z,99298.40
2022-12-03T07:27:29.660Z,99293.20
2022-12-03T07:30:27.876Z,99298.00
2022-12-03T07:33:25.378Z,99293.00
2022-12-03T07:36:22.823Z,99292.80
2022-12-03T07:39:20.261Z,99298.40
2022-12-03T07:42:17.705Z,99299.20
2022-12-03T07:45:15.178Z,99292.40
2022-12-03T07:48:12.674Z,99293.20
2022-12-03T07:51:14.193Z,99293.00
2022-12-03T07:54:12.798Z,99297.40
2022-12-03T07:57:10.259Z,99297.60
2022-12-03T08:00:07.691Z,99296.80
2022-12-03T08:03:05.169Z,99299.60
2022-12-03T08:06:03.018Z,99296.60
2022-12-03T08:09:00.471Z,99292.40
2022-12-03T08:11:57.922Z,99297.60
2022-12-03T08:14:55.521Z,99305.80
2022-12-03T08:17:53.073Z,99311.20
2022-12-03T08:20:50.551Z,99307.20
2022-12-03T08:23:48.318Z,99311.00
2022-12-03T08:26:45.740Z,99312.00
2022-12-03T08:29:43.211Z,99316.40
2022-12-03T08:32:40.689Z,99315.00
2022-12-03T08:35:38.187Z,99315.40
2022-12-03T08:38:35.647Z,99309.20
2022-12-03T08:41:50.602Z,99315.00
2022-12-03T08:44:48.054Z,99315.20
2022-12-03T08:47:45.489Z,99314.40
2022-12-03T08:50:42.957Z,99320.40
2022-12-03T08:53:40.419Z,99314.00
2022-12-03T08:56:37.882Z,99319.40
2022-12-03T08:59:35.339Z,99326.40
2022-12-03T09:02:33.473Z,99322.00
2022-12-03T09:05:30.989Z,99331.40
2022-12-03T09:08:28.451Z,99335.60
2022-12-03T09:11:25.903Z,99327.40
2022-12-03T09:14:23.806Z,99336.20
2022-12-03T09:17:21.319Z,99343.20
2022-12-03T09:20:18.796Z,99343.20
2022-12-03T09:23:16.241Z,99331.00
2022-12-03T09:26:13.829Z,99328.80
2022-12-03T09:29:12.645Z,99332.20
2022-12-03T09:32:13.772Z,99329.00
2022-12-03T09:35:15.715Z,99328.40
2022-12-03T09:38:13.181Z,99331.00
2022-12-03T09:41:10.655Z,99326.60
2022-12-03T09:44:15.844Z,99328.00
2022-12-03T09:47:15.242Z,99324.60
2022-12-03T09:50:13.042Z,99324.20
2022-12-03T09:53:10.650Z,99320.80
2022-12-03T09:56:08.190Z,99316.60
2022-12-03T09:59:05.742Z,99311.60
2022-12-03T10:02:03.767Z,99310.20
2022-12-03T10:05:01.512Z,99310.40
2022-12-03T10:07:59.704Z,99308.20
2022-12-03T10:10:57.578Z,99307.00
2022-12-03T10:13:55.170Z,99298.00
2022-12-03T10:16:52.838Z,99304.00
2022-12-03T10:19:50.465Z,99295.00
2022-12-03T10:22:48.954Z,99297.60
2022-12-03T10:25:46.574Z,99295.80
2022-12-03T10:28:44.221Z,99298.40
2022-12-03T10:31:41.715Z,99294.20
2022-12-03T10:34:39.188Z,99288.40
2022-12-03T10:37:36.644Z,99286.00
2022-12-03T10:40:34.607Z,99279.20
2022-12-03T10:43:32.074Z,99279.00
2022-12-03T10:46:29.686Z,99271.40
2022-12-03T10:49:27.249Z,99267.80
2022-12-03T10:52:26.172Z,99266.80
2022-12-03T10:55:23.839Z,99266.60
2022-12-03T10:58:21.301Z,99271.40
2022-12-03T11:01:19.193Z,99270.80
2022-12-03T11:04:16.692Z,99262.40
2022-12-03T11:07:14.144Z,99260.80
2022-12-03T11:10:11.668Z,99256.40
2022-12-03T11:13:09.128Z,99250.40
2022-12-03T11:16:08.261Z,99250.00
2022-12-03T11:19:05.779Z,99249.80
2022-12-03T11:22:03.274Z,99250.20
2022-12-03T11:25:00.685Z,99247.60
2022-12-03T11:27:58.157Z,99243.20
2022-12-03T11:30:56.701Z,99243.80
2022-12-03T11:33:54.283Z,99237.60
2022-12-03T11:37:01.489Z,99239.00
2022-12-03T11:39:59.757Z,99232.40
2022-12-03T11:42:57.253Z,99226.60
2022-12-03T11:45:58.342Z,99225.40
2022-12-03T11:48:58.491Z,99227.60
2022-12-03T11:51:55.943Z,99214.80
2022-12-03T11:54:53.411Z,99209.20
2022-12-03T11:57:50.867Z,99211.40
2022-12-03T12:00:48.312Z,99200.80
2022-12-03T12:03:45.883Z,99200.40
2022-12-03T12:06:43.397Z,99198.20
2022-12-03T12:09:40.894Z,99197.40
2022-12-03T12:12:38.357Z,99201.00
2022-12-03T12:15:35.852Z,99198.20
2022-12-03T12:18:33.320Z,99201.80
2022-12-03T12:21:30.807Z,99201.00
2022-12-03T12:24:28.266Z,99200.80
2022-12-03T12:27:25.725Z,99200.00
2022-12-03T12:30:23.384Z,99203.40
2022-12-03T12:33:23.110Z,99201.20
2022-12-03T12:36:20.684Z,99207.40
2022-12-03T12:39:18.136Z,99206.60
2022-12-03T12:42:15.747Z,99203.40
2022-12-03T12:45:13.195Z,99199.80
2022-12-03T12:48:10.668Z,99202.60
2022-12-03T12:51:08.166Z,99196.80
2022-12-03T12:54:05.620Z,99189.40
2022-12-03T12:57:03.147Z,99189.60
2022-12-03T13:00:00.585Z,99190.60
2022-12-03T13:02:58.118Z,99188.80
2022-12-03T13:05:55.638Z,99182.60
2022-12-03T13:08:53.150Z,99188.60
2022-12-03T13:11:50.603Z,99195.00
2022-12-03T13:14:48.066Z,99193.80
2022-12-03T13:17:45.505Z,99191.60
2022-12-03T13:20:42.955Z,99195.80
2022-12-03T13:23:40.428Z,99202.60
2022-12-03T13:26:39.288Z,99205.60
2022-12-03T13:29:37.015Z,99204.60
2022-12-03T13:32:34.503Z,99202.80
2022-12-03T13:35:35.361Z,99199.60
2022-12-03T13:38:32.801Z,99202.80
2022-12-03T13:41:47.259Z,99202.40
2022-12-03T13:44:44.736Z,99205.20
2022-12-03T13:47:42.260Z,99201.20
2022-12-03T13:50:39.679Z,99201.00
2022-12-03T13:53:37.098Z,99200.40
2022-12-03T13:56:36.363Z,99200.60
2022-12-03T13:59:33.836Z,99199.00
2022-12-03T14:02:31.629Z,99199.20
2022-12-03T14:05:29.125Z,99203.00
2022-12-03T14:08:26.607Z,99204.80
2022-12-03T14:11:41.735Z,99208.00
2022-12-03T14:14:39.212Z,99206.80
2022-12-03T14:17:36.700Z,99212.60
2022-12-03T14:20:35.121Z,99212.80
2022-12-03T14:23:32.635Z,99216.20
2022-12-03T14:26:30.110Z,99225.80
2022-12-03T14:29:27.565Z,99229.60
2022-12-03T14:32:25.200Z,99228.20
2022-12-03T14:35:22.724Z,99229.00
2022-12-03T14:38:20.183Z,99231.80
2022-12-03T14:41:35.392Z,99228.60
2022-12-03T14:44:32.874Z,99222.40
2022-12-03T14:47:30.338Z,99231.20
2022-12-03T14:50:27.809Z,99225.60
2022-12-03T14:53:27.410Z,99229.80
2022-12-03T14:56:25.146Z,99226.60
2022-12-03T14:59:27.471Z,99223.00
2022-12-03T15:02:25.430Z,99235.40
2022-12-03T15:05:28.627Z,99234.80
2022-12-03T15:08:26.822Z,99227.80
2022-12-03T15:11:24.338Z,99232.20
2022-12-03T15:14:21.823Z,99235.20
2022-12-03T15:17:27.803Z,99234.80
2022-12-03T15:20:28.739Z,99239.80
2022-12-03T15:23:26.181Z,99241.60
2022-12-03T15:26:23.645Z,99245.20
2022-12-03T15:29:21.164Z,99240.40
2022-12-03T15:32:18.614Z,99237.60
2022-12-03T15:35:18.641Z,99226.80
2022-12-03T15:38:16.496Z,99224.80
2022-12-03T15:41:24.671Z,99228.00
2022-12-03T15:44:23.867Z,99231.20
2022-12-03T15:47:22.149Z,99235.80
2022-12-03T15:50:19.656Z,99230.00
2022-12-03T15:53:17.600Z,99227.80
2022-12-03T15:56:15.435Z,99224.00
2022-12-03T15:59:16.317Z,99220.60
2022-12-03T16:02:13.969Z,99219.20
2022-12-03T16:05:11.511Z,99215.80
2022-12-03T16:08:09.191Z,99220.60
2022-12-03T16:11:07.123Z,99219.00
2022-12-03T16:14:04.672Z,99222.60
2022-12-03T16:17:02.325Z,99215.40
2022-12-03T16:20:00.265Z,99214.60
2022-12-03T16:22:58.291Z,99209.80
2022-12-03T16:25:56.718Z,99216.20
2022-12-03T16:28:54.787Z,99214.00
2022-12-03T16:31:52.300Z,99209.00
2022-12-03T16:34:50.316Z,99208.40
2022-12-03T16:37:48.298Z,99218.80
2022-12-03T16:40:45.846Z,99222.80
2022-12-03T16:43:46.221Z,99224.40
2022-12-03T16:46:46.138Z,99218.80
2022-12-03T16:49:44.378Z,99218.20
2022-12-03T16:52:41.895Z,99216.60
2022-12-03T16:55:39.444Z,99212.80
2022-12-03T16:58:37.655Z,99214.00
2022-12-03T17:01:36.166Z,99209.60
2022-12-03T17:04:37.160Z,99207.80
2022-12-03T17:07:34.940Z,99208.60
2022-12-03T17:10:33.651Z,99203.20
2022-12-03T17:13:31.201Z,99208.20
2022-12-03T17:16:29.641Z,99212.80
2022-12-03T17:19:27.604Z,99219.00
2022-12-03T17:22:25.957Z,99214.80
2022-12-03T17:25:23.948Z,99214.00
2022-12-03T17:28:22.281Z,99214.60
2022-12-03T17:31:20.309Z,99211.80
2022-12-03T17:34:18.267Z,99212.00
2022-12-03T17:37:15.951Z,99203.80
2022-12-03T17:40:13.475Z,99210.40
2022-12-03T17:43:12.047Z,99214.40
2022-12-03T17:46:10.420Z,99225.20
2022-12-03T17:49:07.911Z,99222.60
2022-12-03T17:52:05.370Z,99219.40
2022-12-03T17:55:11.234Z,99222.80
2022-12-03T17:58:10.600Z,99227.20
2022-12-03T18:01:10.566Z,99231.20
2022-12-03T18:04:09.783Z,99236.40
2022-12-03T18:07:07.690Z,99232.60
2022-12-03T18:10:05.222Z,99226.60
2022-12-03T18:13:03.099Z,99218.00
2022-12-03T18:16:00.745Z,99224.00
2022-12-03T18:19:04.662Z,99222.80
2022-12-03T18:22:05.426Z,99221.80
2022-12-03T18:25:03.452Z,99222.40
2022-12-03T18:28:00.937Z,99214.60
2022-12-03T18:30:59.039Z,99218.60
2022-12-03T18:33:57.273Z,99219.20
2022-12-03T18:36:54.926Z,99219.80
2022-12-03T18:39:54.478Z,99222.60
2022-12-03T18:42:54.656Z,99225.40
2022-12-03T18:45:53.142Z,99225.80
2022-12-03T18:48:50.683Z,99219.80
2022-12-03T18:51:48.636Z,99215.60
2022-12-03T18:54:47.347Z,99215.60
2022-12-03T18:57:45.090Z,99212.80
2022-12-03T19:00:42.824Z,99213.40
2022-12-03T19:03:40.856Z,99214.60
2022-12-03T19:06:38.824Z,99215.60
2022-12-03T19:09:38.435Z,99218.20
2022-12-03T19:12:40.158Z,99217.40
2022-12-03T19:15:38.597Z,99225.20
2022-12-03T19:18:37.260Z,99225.00
2022-12-03T19:21:36.606Z,99227.40
2022-12-03T19:24:35.203Z,99226.60
2022-12-03T19:27:33.215Z,99225.20
2022-12-03T19:30:31.656Z,99228.20
2022-12-03T19:33:30.166Z,99230.60
2022-12-03T19:36:28.253Z,99237.60
2022-12-03T19:39:28.002Z,99234.20
2022-12-03T19:42:29.940Z,99243.80
2022-12-03T19:45:28.627Z,99239.40
2022-12-03T19:48:27.313Z,99242.00
2022-12-03T19:51:34.546Z,99246.40
2022-12-03T19:54:34.787Z,99242.40
2022-12-03T19:57:33.262Z,99246.20
2022-12-03T20:00:31.979Z,99246.00
2022-12-03T20:03:30.654Z,99246.00
2022-12-03T20:06:29.257Z,99238.60
2022-12-03T20:09:27.940Z,99236.00
2022-12-03T20:12:26.436Z,99233.60
2022-12-03T20:15:24.869Z,99229.80
2022-12-03T20:18:23.068Z,99235.40
2022-12-03T20:21:21.736Z,99239.00
2022-12-03T20:24:20.464Z,99237.60
2022-12-03T20:27:22.793Z,99244.00
2022-12-03T20:30:21.727Z,99240.60
2022-12-03T20:33:20.253Z,99242.40
2022-12-03T20:36:18.323Z,99242.00
2022-12-03T20:39:15.886Z,99249.20
2022-12-03T20:42:17.003Z,99247.60
2022-12-03T20:45:15.425Z,99245.00
2022-12-03T20:48:14.002Z,99247.80
2022-12-03T20:51:12.094Z,99243.00
2022-12-03T20:54:10.584Z,99238.40
2022-12-03T20:57:09.021Z,99249.20
2022-12-03T21:00:07.348Z,99240.00
2022-12-03T21:03:06.002Z,99242.00
2022-12-03T21:06:03.791Z,99245.20
2022-12-03T21:09:02.105Z,99242.00
2022-12-03T21:12:00.968Z,99238.80
2022-12-03T21:14:59.831Z,99248.00
2022-12-03T21:17:57.603Z,99246.60
2022-12-03T21:20:55.740Z,99245.80
2022-12-03T21:23:53.661Z,99243.60
2022-12-03T21:26:52.293Z,99243.00
2022-12-03T21:29:50.212Z,99238.40
2022-12-03T21:32:48.647Z,99243.60
2022-12-03T21:35:47.228Z,99236.60
2022-12-03T21:38:45.155Z,99245.40
2022-12-03T21:42:18.863Z,99245.80
2022-12-03T21:45:01.229Z,99243.20
2022-12-03T21:47:58.767Z,99240.80
2022-12-03T21:50:56.347Z,99236.20
2022-12-03T21:53:53.880Z,99240.20
2022-12-03T21:56:51.812Z,99230.20
2022-12-03T21:59:49.939Z,99233.40
2022-12-03T22:02:47.436Z,99234.40
2022-12-03T22:05:45.708Z,99233.20
2022-12-03T22:08:43.202Z,99234.40
2022-12-03T22:11:40.900Z,99230.00
2022-12-03T22:14:38.588Z,99228.80
2022-12-03T22:17:36.041Z,99228.60
2022-12-03T22:20:33.480Z,99219.20
2022-12-03T22:23:30.933Z,99221.20
2022-12-03T22:26:28.397Z,99218.60
2022-12-03T22:29:25.833Z,99223.00
2022-12-03T22:32:23.904Z,99226.80
2022-12-03T22:35:21.370Z,99224.40
2022-12-03T22:38:18.839Z,99225.60
2022-12-03T22:41:16.333Z,99224.20
2022-12-03T22:44:13.795Z,99216.40
2022-12-03T22:47:11.248Z,99215.60
2022-12-03T22:50:08.873Z,99212.20
2022-12-03T22:53:06.336Z,99211.60
2022-12-03T22:56:03.801Z,99205.80
2022-12-03T22:59:01.258Z,99210.20
2022-12-03T23:01:58.717Z,99203.40
2022-12-03T23:04:56.180Z,99198.40
2022-12-03T23:07:53.673Z,99193.60
2022-12-03T23:10:51.177Z,99193.80
2022-12-03T23:13:48.640Z,99189.00
2022-12-03T23:16:46.094Z,99193.00
2022-12-03T23:19:43.533Z,99189.20
2022-12-03T23:22:41.005Z,99186.60
2022-12-03T23:25:38.523Z,99188.20
2022-12-03T23:28:35.958Z,99180.40
2022-12-03T23:31:33.741Z,99178.20
2022-12-03T23:34:31.407Z,99178.20
2022-12-03T23:37:28.963Z,99183.20
2022-12-03T23:40:26.438Z,99185.20
2022-12-03T23:43:23.886Z,99175.20
2022-12-03T23:46:21.424Z,99174.20
2022-12-03T23:49:18.945Z,99172.60
2022-12-03T23:52:16.432Z,99169.80
2022-12-03T23:55:13.880Z,99179.20
2022-12-03T23:58:11.354Z,99183.40
